Time;durP1;ratioP1;P1;durP2;ratioP2;P2;SDS_P1;SDS_P2;PMS_P1;PMS_P2;Temp;Humidity;BMP_temperature;BMP_pressure;BME280_temperature;BME280_humidity;BME280_pressure;Samples;Min_cycle;Max_cycle;Signal;HPM_P1;HPM_P2
2022/01/24 00:02:02;;;;;;;13.57;11.90;;;;;;;;;;5001395;28;20061;-79
2022/01/24 00:04:28;;;;;;;14.30;12.45;;;;;;;;;;5003787;28;20049;-78
2022/01/24 00:06:54;;;;;;;15.50;12.80;;;;;;;;;;5007139;28;20048;-78
2022/01/24 00:09:20;;;;;;;14.77;12.35;;;;;;;;;;5007553;28;20042;-78
2022/01/24 00:17:13;;;;;;;14.02;12.63;;;;;;;;;;5000736;28;20510;-78
2022/01/24 00:27:54;;;;;;;17.25;14.95;;;;;;;;;;5000420;28;20046;-78
2022/01/24 00:30:20;;;;;;;19.48;15.60;;;;;;;;;;4988999;28;20042;-78
2022/01/24 00:32:47;;;;;;;16.42;14.73;;;;;;;;;;4999216;28;20049;-79
2022/01/24 00:35:13;;;;;;;18.60;16.10;;;;;;;;;;5003287;28;20354;-79
2022/01/24 00:37:39;;;;;;;18.83;16.35;;;;;;;;;;5003999;28;20045;-79
2022/01/24 00:40:06;;;;;;;20.40;17.33;;;;;;;;;;4999469;28;20042;-79
2022/01/24 00:45:07;;;;;;;21.20;17.77;;;;;;;;;;4999266;28;20485;-78
2022/01/24 00:48:09;;;;;;;20.73;17.80;;;;;;;;;;5003420;28;20448;-79
2022/01/24 00:54:00;;;;;;;21.25;18.98;;;;;;;;;;5007425;28;20041;-78
2022/01/24 00:56:25;;;;;;;23.10;19.52;;;;;;;;;;5008841;28;20497;-79
2022/01/24 00:58:51;;;;;;;23.42;19.95;;;;;;;;;;5004595;28;20041;-79
2022/01/24 01:01:17;;;;;;;25.77;21.30;;;;;;;;;;5009170;28;20121;-79
2022/01/24 01:03:43;;;;;;;25.75;20.40;;;;;;;;;;5009017;28;20401;-79
2022/01/24 01:06:11;;;;;;;24.27;20.73;;;;;;;;;;4986959;28;20041;-79
2022/01/24 01:19:38;;;;;;;25.60;22.25;;;;;;;;;;4996343;28;20490;-79
2022/01/24 01:22:05;;;;;;;26.73;22.70;;;;;;;;;;5000372;28;20042;-78
2022/01/24 01:24:36;;;;;;;27.50;23.63;;;;;;;;;;5005281;28;20494;-79
2022/01/24 01:27:08;;;;;;;27.67;23.85;;;;;;;;;;4990219;28;20503;-79
2022/01/24 01:29:48;;;;;;;27.08;24.13;;;;;;;;;;5000318;28;20049;-79
2022/01/24 01:37:59;;;;;;;28.48;24.58;;;;;;;;;;4930975;28;20203;-79
2022/01/24 01:52:16;;;;;;;27.60;24.25;;;;;;;;;;4938783;28;20071;-79
2022/01/24 01:54:30;;;;;;;26.98;24.15;;;;;;;;;;5005842;28;20042;-78
2022/01/24 01:56:56;;;;;;;26.67;23.58;;;;;;;;;;5008462;28;20124;-79
2022/01/24 01:59:22;;;;;;;27.33;24.35;;;;;;;;;;5007959;28;20421;-78
2022/01/24 02:01:48;;;;;;;25.83;22.65;;;;;;;;;;4986506;28;20101;-78
2022/01/24 02:04:15;;;;;;;22.25;19.88;;;;;;;;;;4987495;28;20049;-78
2022/01/24 02:06:44;;;;;;;24.05;21.45;;;;;;;;;;4988437;28;20478;-79
2022/01/24 02:09:11;;;;;;;23.52;21.02;;;;;;;;;;5002690;28;21150;-78
2022/01/24 02:11:37;;;;;;;24.55;21.92;;;;;;;;;;5007491;28;20057;-79
2022/01/24 02:14:07;;;;;;;24.85;22.15;;;;;;;;;;4999749;28;20092;-78
2022/01/24 02:19:14;;;;;;;20.85;17.77;;;;;;;;;;4994442;28;20503;-79
2022/01/24 02:22:04;;;;;;;15.43;13.55;;;;;;;;;;4978931;28;20122;-78
2022/01/24 02:24:39;;;;;;;18.42;16.23;;;;;;;;;;4978123;28;20412;-78
2022/01/24 02:27:09;;;;;;;16.33;14.05;;;;;;;;;;4978732;28;20408;-78
2022/01/24 02:32:08;;;;;;;15.80;13.98;;;;;;;;;;4976949;28;20047;-78
2022/01/24 02:34:40;;;;;;;16.33;14.60;;;;;;;;;;4982949;28;20047;-78
2022/01/24 02:37:08;;;;;;;16.20;14.48;;;;;;;;;;4983889;28;20184;-79
2022/01/24 02:39:58;;;;;;;16.48;13.48;;;;;;;;;;4981670;28;20084;-78
2022/01/24 02:53:21;;;;;;;12.25;11.05;;;;;;;;;;4985965;28;20054;-78
2022/01/24 02:55:48;;;;;;;13.57;10.43;;;;;;;;;;4988980;28;20129;-78
2022/01/24 02:58:16;;;;;;;12.52;10.73;;;;;;;;;;4989121;28;20062;-79
2022/01/24 03:00:42;;;;;;;12.20;10.50;;;;;;;;;;4988666;28;20035;-79
2022/01/24 03:03:10;;;;;;;14.32;11.57;;;;;;;;;;4987847;28;20034;-78
2022/01/24 03:05:36;;;;;;;13.48;10.65;;;;;;;;;;4986152;28;20050;-78
2022/01/24 03:08:02;;;;;;;12.50;10.45;;;;;;;;;;4987882;28;20173;-79
2022/01/24 03:10:36;;;;;;;12.48;10.85;;;;;;;;;;4981599;28;20050;-79
2022/01/24 03:15:43;;;;;;;13.68;11.82;;;;;;;;;;4978980;28;20065;-79
2022/01/24 03:18:12;;;;;;;13.60;12.20;;;;;;;;;;4982134;28;20117;-78
2022/01/24 03:20:39;;;;;;;13.88;12.07;;;;;;;;;;4979382;28;20521;-78
2022/01/24 03:23:05;;;;;;;13.98;12.48;;;;;;;;;;4981603;28;20073;-78
2022/01/24 03:25:31;;;;;;;14.40;12.45;;;;;;;;;;4977647;28;20052;-78
2022/01/24 03:27:58;;;;;;;14.63;12.82;;;;;;;;;;4992625;28;20097;-78
2022/01/24 03:30:27;;;;;;;15.57;13.77;;;;;;;;;;4981258;28;20050;-79
2022/01/24 03:32:53;;;;;;;15.63;14.02;;;;;;;;;;5000877;28;20060;-79
2022/01/24 03:35:19;;;;;;;14.80;13.20;;;;;;;;;;4999761;28;20045;-79
2022/01/24 03:37:45;;;;;;;16.45;14.35;;;;;;;;;;4984565;28;20236;-79
2022/01/24 03:40:11;;;;;;;15.20;13.63;;;;;;;;;;4998578;28;20136;-78
2022/01/24 03:42:37;;;;;;;16.50;14.63;;;;;;;;;;4999569;28;20080;-78
2022/01/24 03:45:06;;;;;;;16.02;14.05;;;;;;;;;;5004002;28;20073;-78
2022/01/24 03:50:02;;;;;;;17.38;14.35;;;;;;;;;;4988658;28;20173;-79
2022/01/24 03:52:31;;;;;;;17.70;15.80;;;;;;;;;;5003338;28;20868;-78
2022/01/24 03:54:58;;;;;;;17.70;15.77;;;6.10;99.90;;;;;;5005918;28;20492;-79
2022/01/24 03:57:25;;;;;;;17.10;15.25;;;5.80;99.90;;;;;;4986412;28;20050;-79
2022/01/24 03:59:51;;;;;;;15.43;13.15;;;5.80;99.90;;;;;;5005838;28;20053;-79
2022/01/24 04:02:21;;;;;;;17.13;13.63;;;5.80;99.90;;;;;;4993597;28;20061;-78
2022/01/24 04:04:47;;;;;;;16.40;14.35;;;5.80;99.90;;;;;;4992316;28;20410;-78
2022/01/24 04:07:14;;;;;;;16.95;13.95;;;5.80;99.90;;;;;;4985706;28;20043;-79
2022/01/24 04:09:41;;;;;;;15.70;14.10;;;5.80;99.90;;;;;;4990252;28;20097;-79
2022/01/24 04:12:09;;;;;;;16.73;13.95;;;5.80;99.90;;;;;;5005664;28;20038;-78
2022/01/24 04:14:42;;;;;;;15.13;13.52;;;5.80;99.90;;;;;;4998470;28;20046;-78
2022/01/24 04:22:18;;;;;;;17.13;14.50;;;5.80;99.90;;;;;;4997463;28;20038;-78
2022/01/24 04:24:46;;;;;;;17.42;15.63;;;5.80;99.90;;;;;;4999265;28;20045;-79
2022/01/24 04:27:16;;;;;;;17.73;15.73;;;5.80;99.90;;;;;;4995695;28;20057;-79
2022/01/24 04:29:42;;;;;;;16.88;15.13;;;5.80;99.90;;;;;;4995969;28;20042;-79
2022/01/24 04:32:09;;;;;;;17.48;15.60;;;5.80;99.90;;;;;;4996134;28;20042;-79
2022/01/24 04:34:37;;;;;;;18.83;16.38;;;5.80;99.90;;;;;;4979914;28;20038;-79
2022/01/24 04:37:03;;;;;;;18.83;15.70;;;5.80;99.90;;;;;;4997281;28;20523;-79
2022/01/24 04:39:29;;;;;;;19.15;15.88;;;5.80;99.90;;;;;;5000648;28;20033;-79
2022/01/24 04:41:57;;;;;;;18.85;15.50;;;5.80;99.90;;;;;;5001995;28;20045;-79
2022/01/24 04:55:05;;;;;;;20.63;16.85;;;5.80;99.90;;;;;;4996840;28;20046;-78
2022/01/24 04:57:30;;;;;;;19.05;16.38;;;5.80;99.90;;;;;;4981750;28;20073;-79
2022/01/24 04:59:58;;;;;;;19.55;16.08;;;5.80;99.90;;;;;;5000095;28;20073;-78
2022/01/24 05:02:25;;;;;;;19.58;17.00;;;5.80;99.90;;;;;;4998051;28;20045;-78
2022/01/24 05:04:56;;;;;;;20.50;16.23;;;;;;;;;;5001464;28;20061;-78
2022/01/24 05:07:22;;;;;;;20.17;17.08;;;;;;;;;;5001820;28;20103;-79
2022/01/24 05:09:57;;;;;;;19.98;16.65;;;;;;;;;;4980358;28;20458;-79
2022/01/24 05:25:52;;;;;;;22.58;17.77;;;;;;;;;;4998167;28;20484;-79
2022/01/24 05:28:19;;;;;;;22.27;18.27;;;;;;;;;;4999438;28;20137;-79
2022/01/24 05:30:48;;;;;;;22.13;18.10;;;;;;;;;;4996405;28;20074;-78
2022/01/24 05:33:14;;;;;;;23.45;18.77;;;;;;;;;;4980307;28;20046;-79
2022/01/24 05:35:40;;;;;;;23.95;18.77;;;;;;;;;;4998500;28;20516;-79
2022/01/24 05:38:06;;;;;;;21.85;18.83;;;;;;;;;;4987073;28;20045;-79
2022/01/24 05:40:33;;;;;;;23.50;19.25;;;;;;;;;;4996393;28;20053;-79
2022/01/24 05:42:59;;;;;;;27.67;20.15;;;;;;;;;;4990472;28;20059;-79
2022/01/24 05:45:25;;;;;;;22.67;18.90;;;;;;;;;;5005035;28;20058;-79
2022/01/24 05:47:51;;;;;;;24.60;19.50;;;;;;;;;;4983921;28;20078;-79
2022/01/24 05:50:17;;;;;;;25.85;19.33;;;;;;;;;;4998264;28;20045;-79
2022/01/24 05:52:43;;;;;;;25.15;20.17;;;;;;;;;;5007863;28;20038;-79
2022/01/24 05:55:09;;;;;;;25.23;19.90;;;;;;;;;;5005974;28;20042;-79
2022/01/24 05:57:36;;;;;;;22.23;19.23;;;;;;;;;;4989066;28;20038;-79
2022/01/24 06:00:03;;;;;;;23.92;18.40;;;;;;;;;;4987180;28;20054;-79
2022/01/24 06:02:29;;;;;;;24.67;19.92;;;;;;;;;;4988214;28;20136;-79
2022/01/24 06:04:55;;;;;;;24.80;18.77;;;;;;;;;;5003035;28;20541;-79
2022/01/24 06:07:21;;;;;;;25.65;19.17;;;;;;;;;;4998910;28;20050;-79
2022/01/24 06:09:47;;;;;;;24.98;19.27;;;;;;;;;;4992733;28;20374;-79
2022/01/24 06:12:13;;;;;;;23.67;18.65;;;;;;;;;;4989667;28;20401;-79
2022/01/24 06:14:40;;;;;;;30.42;22.92;;;;;;;;;;5002685;28;20054;-79
2022/01/24 06:17:06;;;;;;;28.80;21.60;;;;;;;;;;4987785;28;20050;-80
2022/01/24 06:19:34;;;;;;;22.70;18.98;;;;;;;;;;5001828;28;20090;-79
2022/01/24 06:22:00;;;;;;;22.45;18.52;;;;;;;;;;4982962;28;20083;-79
2022/01/24 06:24:26;;;;;;;23.95;18.33;;;;;;;;;;5001428;28;20579;-80
2022/01/24 06:26:52;;;;;;;25.05;19.02;;;;;;;;;;4985241;28;20500;-80
2022/01/24 06:29:18;;;;;;;24.92;19.50;;;;;;;;;;5000509;28;20068;-79
2022/01/24 06:31:45;;;;;;;23.20;19.77;;;;;;;;;;4984902;28;20041;-79
2022/01/24 06:34:11;;;;;;;21.73;18.27;;;;;;;;;;5000316;28;20129;-79
2022/01/24 06:36:37;;;;;;;25.30;18.88;;;;;;;;;;4982346;28;20105;-79
2022/01/24 06:39:05;;;;;;;23.60;17.73;;;;;;;;;;4983134;28;20047;-79
2022/01/24 06:41:34;;;;;;;24.20;18.65;;;;;;;;;;5004164;28;20212;-79
2022/01/24 06:44:01;;;;;;;22.65;18.45;;;;;;;;;;5001551;28;20135;-79
2022/01/24 06:46:27;;;;;;;23.30;19.60;;;;;;;;;;5002258;28;20069;-79
2022/01/24 06:48:53;;;;;;;22.83;19.65;;;;;;;;;;4983091;28;20042;-78
2022/01/24 06:51:20;;;;;;;22.58;20.05;;;;;;;;;;4996188;28;20041;-79
2022/01/24 06:53:47;;;;;;;24.67;20.88;;;;;;;;;;5001733;28;20140;-79
2022/01/24 06:56:14;;;;;;;21.95;19.45;;;;;;;;;;4998727;28;20829;-79
2022/01/24 06:58:40;;;;;;;22.80;18.92;;;;;;;;;;5000871;28;20042;-79
2022/01/24 07:01:09;;;;;;;23.88;20.25;;;;;;;;;;4983170;28;20046;-79
2022/01/24 07:03:35;;;;;;;23.02;20.52;;;;;;;;;;5011949;28;20068;-79
2022/01/24 07:06:01;;;;;;;23.55;20.52;;;;;;;;;;4983135;28;20490;-79
2022/01/24 07:08:27;;;;;;;23.27;20.77;;;;;;;;;;4983766;28;20104;-79
2022/01/24 07:10:53;;;;;;;24.80;20.40;;;;;;;;;;4981845;28;20058;-79
2022/01/24 07:13:22;;;;;;;24.23;21.08;;;;;;;;;;4984494;28;20051;-78
2022/01/24 07:15:58;;;;;;;22.48;19.33;;;;;;;;;;4998740;28;20096;-79
2022/01/24 07:20:53;;;;;;;21.88;19.55;;;;;;;;;;4982065;28;20128;-79
2022/01/24 07:23:19;;;;;;;23.95;20.70;;;;;;;;;;5002613;28;20041;-79
2022/01/24 07:25:45;;;;;;;23.30;20.50;;;;;;;;;;4999659;28;20118;-79
2022/01/24 07:28:11;;;;;;;17.95;16.10;;;;;;;;;;5004551;28;20168;-77
2022/01/24 07:30:37;;;;;;;19.27;17.23;;;;;;;;;;4997439;28;20470;-78
2022/01/24 07:33:03;;;;;;;18.48;16.58;;;;;;;;;;5000493;28;20077;-79
2022/01/24 07:35:29;;;;;;;20.65;17.33;;;;;;;;;;4983006;28;20049;-79
2022/01/24 07:37:55;;;;;;;20.58;18.02;;;;;;;;;;5006285;28;20390;-78
2022/01/24 07:40:22;;;;;;;21.50;19.20;;;;;;;;;;5005985;28;20533;-78
2022/01/24 07:42:58;;;;;;;22.70;19.25;;;;;;;;;;5008191;28;20077;-78
2022/01/24 07:45:25;;;;;;;22.33;19.92;;;;;;;;;;4985544;28;20080;-78
2022/01/24 07:47:52;;;;;;;22.45;20.05;;;;;;;;;;5008068;28;20042;-78
2022/01/24 07:50:20;;;;;;;21.63;19.33;;;;;;;;;;5005237;28;20088;-78
2022/01/24 07:52:46;;;;;;;23.40;20.85;;;;;;;;;;5008514;28;20069;-78
2022/01/24 07:55:12;;;;;;;23.42;20.65;;;;;;;;;;4987467;28;20137;-78
2022/01/24 07:57:38;;;;;;;22.85;20.45;;;;;;;;;;5006709;28;20050;-79
2022/01/24 08:00:09;;;;;;;23.45;20.95;;;;;;;;;;5003321;28;20046;-79
2022/01/24 08:02:36;;;;;;;24.33;21.73;;;;;;;;;;4992641;28;20452;-79
2022/01/24 08:05:02;;;;;;;24.65;21.55;;;;;;;;;;4995221;28;20062;-78
2022/01/24 08:07:28;;;;;;;24.17;21.58;;;;;;;;;;4942485;28;20109;-77
2022/01/24 08:09:54;;;;;;;24.33;21.40;;;;;;;;;;4941539;29;20047;-79
2022/01/24 08:12:20;;;;;;;23.05;20.52;;;;;;;;;;4935350;29;20051;-79
2022/01/24 08:14:46;;;;;;;23.52;20.48;;;;;;;;;;4935332;29;20286;-79
2022/01/24 08:17:12;;;;;;;24.75;22.13;;;;;;;;;;4934295;29;20078;-78
2022/01/24 08:19:38;;;;;;;21.98;19.58;;;;;;;;;;4935856;29;20134;-79
2022/01/24 08:22:04;;;;;;;23.08;20.67;;;;;;;;;;4933558;29;20043;-78
2022/01/24 08:24:31;;;;;;;22.50;20.10;;;;;;;;;;4953684;29;20051;-79
2022/01/24 08:26:57;;;;;;;22.08;19.77;;;;;;;;;;4932656;29;20043;-79
2022/01/24 08:29:23;;;;;;;23.10;19.98;;;;;;;;;;4932439;29;20066;-79
2022/01/24 08:31:49;;;;;;;22.95;20.10;;;;;;;;;;4951391;28;20243;-79
2022/01/24 08:34:16;;;;;;;23.63;20.98;;;;;;;;;;4934872;29;20190;-78
2022/01/24 08:36:43;;;;;;;21.85;19.30;;;;;;;;;;4950402;29;20503;-78
2022/01/24 08:39:09;;;;;;;22.77;20.38;;;;;;;;;;4934908;28;20120;-79
2022/01/24 08:44:21;;;;;;;23.35;20.85;;;;;;;;;;4950290;28;20487;-78
2022/01/24 08:46:47;;;;;;;22.17;19.88;;;;;;;;;;4951325;28;20507;-78
2022/01/24 08:49:14;;;;;;;23.00;20.60;;;;;;;;;;4951287;29;20046;-78
2022/01/24 08:51:40;;;;;;;23.13;20.70;;;;;;;;;;4935232;29;20118;-78
2022/01/24 08:54:07;;;;;;;24.65;21.13;;;;;;;;;;4935640;28;20047;-79
2022/01/24 08:56:34;;;;;;;23.08;20.58;;;;;;;;;;4952399;28;20126;-79
2022/01/24 08:59:00;;;;;;;21.60;19.35;;;;;;;;;;4947817;29;20043;-79
2022/01/24 09:01:26;;;;;;;23.73;21.17;;;;;;;;;;4947911;28;20074;-78
2022/01/24 09:03:53;;;;;;;22.63;20.08;;;;;;;;;;4928618;29;20135;-79
2022/01/24 09:06:25;;;;;;;20.55;18.40;;;;;;;;;;4935385;28;20475;-79
2022/01/24 09:08:55;;;;;;;21.75;19.45;;;;;;;;;;4952876;28;20058;-79
2022/01/24 09:11:28;;;;;;;23.67;21.17;;;;;;;;;;4950406;28;20061;-79
2022/01/24 09:13:54;;;;;;;23.52;21.05;;;;;;;;;;4935800;29;20047;-79
2022/01/24 09:16:20;;;;;;;20.25;18.15;;;;;;;;;;4934908;28;20046;-79
2022/01/24 09:18:46;;;;;;;21.05;18.85;;;;;;;;;;4932845;29;20070;-79
2022/01/24 09:21:12;;;;;;;20.70;18.30;;;;;;;;;;4952131;29;20451;-79
2022/01/24 09:23:38;;;;;;;21.42;18.98;;;;;;;;;;4945656;28;20036;-80
2022/01/24 09:26:04;;;;;;;22.40;20.10;;;;;;;;;;4950477;29;20093;-79
2022/01/24 09:28:30;;;;;;;24.00;20.13;;;;;;;;;;4929686;29;20456;-79
2022/01/24 09:30:57;;;;;;;22.88;20.38;;;;;;;;;;4949420;29;20070;-78
2022/01/24 09:33:23;;;;;;;22.42;19.90;;;;;;;;;;4948825;28;20055;-79
2022/01/24 09:35:51;;;;;;;21.08;18.88;;;;;;;;;;4933086;29;20051;-78
2022/01/24 09:38:17;;;;;;;20.23;18.13;;;;;;;;;;4950111;29;20047;-79
2022/01/24 09:40:44;;;;;;;20.65;18.00;;;;;;;;;;4932088;29;20137;-79
2022/01/24 09:43:10;;;;;;;22.48;20.05;;;;;;;;;;4936880;29;20372;-79
2022/01/24 09:45:37;;;;;;;22.58;20.20;;;;;;;;;;4954459;28;20047;-79
2022/01/24 09:48:05;;;;;;;21.38;19.15;;;;;;;;;;4956161;28;20495;-79
2022/01/24 09:50:31;;;;;;;19.88;17.85;;;;;;;;;;4955186;29;20063;-80
2022/01/24 09:52:57;;;;;;;20.33;18.20;;;;;;;;;;4947579;29;20146;-79
2022/01/24 09:55:25;;;;;;;20.70;18.50;;;;;;;;;;4956434;29;20055;-79
2022/01/24 09:57:51;;;;;;;21.42;19.23;;;;;;;;;;4954469;28;20046;-79
2022/01/24 10:00:19;;;;;;;21.27;18.98;;;;;;;;;;4954921;29;20443;-79
2022/01/24 10:02:46;;;;;;;22.80;20.38;;;;;;;;;;4953767;29;20090;-79
2022/01/24 10:05:12;;;;;;;25.15;20.55;;;;;;;;;;4956146;29;20054;-80
2022/01/24 10:07:39;;;;;;;25.77;21.58;;;;;;;;;;4953636;29;20043;-80
2022/01/24 10:10:05;;;;;;;27.33;24.00;;;;;;;;;;4938464;29;20055;-80
2022/01/24 10:17:46;;;;;;;24.90;21.95;;;;;;;;;;4953695;28;20051;-80
2022/01/24 10:20:23;;;;;;;23.40;20.90;;;;;;;;;;4954199;28;20062;-80
2022/01/24 10:23:07;;;;;;;25.20;22.15;;;;;;;;;;4938137;29;20117;-80
2022/01/24 10:25:45;;;;;;;20.92;18.83;;;;;;;;;;4965680;28;20063;-80
2022/01/24 10:28:11;;;;;;;22.75;19.60;;;;;;;;;;4935678;29;20565;-81
2022/01/24 10:30:37;;;;;;;21.05;18.85;;;;;;;;;;4955922;29;20055;-80
2022/01/24 10:33:04;;;;;;;23.63;21.13;;;;;;;;;;4937935;29;20411;-80
2022/01/24 10:35:35;;;;;;;24.58;21.45;;;;;;;;;;4952970;29;20054;-80
2022/01/24 10:38:16;;;;;;;23.33;20.70;;;;;;;;;;4952982;28;20039;-79
2022/01/24 10:40:49;;;;;;;24.38;21.52;;;;;;;;;;4949794;29;20051;-80
2022/01/24 10:43:15;;;;;;;;;;;;;;;;;;4951272;28;20067;-80
2022/01/24 10:45:44;;;;;;;22.90;20.48;;;;;;;;;;4952522;29;19930;-79
2022/01/24 10:48:10;;;;;;;23.10;20.60;;;;;;;;;;4954746;29;20570;-79
2022/01/24 10:50:36;;;;;;;21.02;18.75;;;;;;;;;;4936045;29;20406;-80
2022/01/24 10:53:13;;;;;;;23.83;20.83;;;;;;;;;;4955632;28;20043;-79
2022/01/24 10:55:41;;;;;;;22.40;19.45;;;;;;;;;;4951383;29;20134;-80
2022/01/24 10:58:08;;;;;;;21.10;18.90;;;;;;;;;;4951983;29;20467;-80
2022/01/24 11:00:35;;;;;;;18.95;16.95;;;;;;;;;;4953642;28;20043;-80
2022/01/24 11:03:06;;;;;;;20.45;17.35;;;;;;;;;;4948174;28;20047;-78
2022/01/24 11:05:41;;;;;;;19.77;17.67;;;;;;;;;;4948096;28;20047;-78
2022/01/24 11:08:11;;;;;;;44.58;39.88;;;;;;;;;;4937684;29;20411;-78
2022/01/24 11:10:37;;;;;;;31.35;28.15;;;;;;;;;;4954195;28;20115;-79
2022/01/24 11:13:04;;;;;;;25.10;22.50;;;;;;;;;;4953653;29;20444;-78
2022/01/24 11:15:31;;;;;;;23.23;20.95;;;;;;;;;;4952206;29;20105;-78
2022/01/24 11:17:58;;;;;;;19.02;17.13;;;;;;;;;;4953635;29;20046;-78
2022/01/24 11:20:30;;;;;;;19.50;17.50;;;;;;;;;;4935463;29;20059;-79
2022/01/24 11:23:01;;;;;;;22.27;20.08;;;;;;;;;;4937950;29;20428;-78
2022/01/24 11:25:32;;;;;;;21.10;19.00;;;;;;;;;;4952476;28;20055;-79
2022/01/24 11:27:58;;;;;;;21.73;19.42;;;;;;;;;;4953837;29;20499;-79
2022/01/24 11:30:31;;;;;;;18.70;16.77;;;;;;;;;;4952346;29;20051;-79
2022/01/24 11:33:01;;;;;;;20.77;18.58;;;;;;;;;;4952172;29;20035;-79
2022/01/24 11:35:44;;;;;;;20.98;18.83;;;;;;;;;;4953307;29;20098;-78
2022/01/24 11:38:29;;;;;;;19.88;17.75;;;;;;;;;;4948771;29;20382;-79
2022/01/24 11:41:00;;;;;;;19.02;16.67;;;;;;;;;;4956992;28;20141;-78
2022/01/24 11:43:27;;;;;;;16.65;14.95;;;;;;;;;;4951670;28;20414;-79
2022/01/24 11:46:02;;;;;;;19.50;17.40;;;;;;;;;;4953841;29;20050;-79
2022/01/24 11:48:28;;;;;;;18.58;16.73;;;;;;;;;;4945580;29;20043;-79
2022/01/24 11:50:55;;;;;;;17.30;15.40;;;;;;;;;;4951983;28;20093;-78
2022/01/24 11:53:26;;;;;;;17.15;15.38;;;;;;;;;;4941153;29;20142;-78
2022/01/24 11:55:54;;;;;;;18.48;16.58;;;;;;;;;;4921686;29;20439;-79
2022/01/24 11:58:30;;;;;;;18.95;17.02;;;;;;;;;;4953263;29;20039;-79
2022/01/24 12:01:03;;;;;;;19.80;17.33;;;;;;;;;;4931164;29;20049;-79
2022/01/24 12:03:29;;;;;;;20.80;18.17;;;;;;;;;;4935850;29;20055;-78
2022/01/24 12:05:56;;;;;;;22.95;20.55;;;;;;;;;;4950214;28;20113;-79
2022/01/24 12:08:30;;;;;;;20.92;18.77;;;;;;;;;;4953220;29;20043;-80
2022/01/24 12:11:10;;;;;;;20.38;18.33;;;;;;;;;;4935025;29;20043;-79
2022/01/24 12:13:40;;;;;;;19.88;17.70;;;;;;;;;;4954842;28;20382;-80
2022/01/24 12:16:07;;;;;;;19.10;17.17;;;;;;;;;;4957627;28;20043;-79
2022/01/24 12:18:34;;;;;;;19.75;17.75;;;;;;;;;;4934727;29;20048;-80
2022/01/24 12:21:06;;;;;;;20.42;18.38;;;;;;;;;;4935351;29;20047;-80
2022/01/24 12:23:52;;;;;;;20.90;18.42;;;;;;;;;;4930375;29;20051;-80
2022/01/24 12:26:18;;;;;;;19.83;17.73;;;;;;;;;;4954344;28;20106;-80
2022/01/24 12:28:44;;;;;;;17.48;15.77;;;;;;;;;;4952932;29;20063;-79
2022/01/24 12:31:16;;;;;;;20.85;18.63;;;;;;;;;;4953422;29;20093;-81
2022/01/24 12:33:51;;;;;;;20.00;17.98;;;;;;;;;;4935341;29;20054;-81
2022/01/24 12:36:48;;;;;;;20.77;18.60;;;;;;;;;;4953034;29;20049;-81
2022/01/24 12:39:20;;;;;;;20.55;18.45;;;;;;;;;;4936780;29;20098;-79
2022/01/24 12:41:49;;;;;;;20.00;17.90;;;;;;;;;;4950948;29;20038;-77
2022/01/24 12:47:01;;;;;;;19.58;17.48;;;;;;;;;;4949250;28;20489;-77
2022/01/24 12:49:30;;;;;;;20.58;18.35;;;;;;;;;;4952906;29;20058;-78
2022/01/24 12:52:00;;;;;;;19.45;17.42;;;;;;;;;;4954138;29;20051;-76
2022/01/24 12:54:31;;;;;;;20.05;17.98;;;;;;;;;;4951675;29;20496;-77
2022/01/24 12:57:01;;;;;;;20.15;17.95;;;;;;;;;;4932381;29;20059;-77
2022/01/24 12:59:27;;;;;;;21.20;19.02;;;;;;;;;;4950011;29;20054;-77
2022/01/24 13:01:57;;;;;;;17.75;15.95;;;;;;;;;;4953156;29;20054;-77
2022/01/24 13:04:45;;;;;;;19.00;16.77;;;;;;;;;;4930217;29;20048;-77
2022/01/24 13:07:12;;;;;;;19.98;17.88;;;;;;;;;;4936125;29;20044;-77
2022/01/24 13:09:38;;;;;;;19.73;17.63;;;;;;;;;;4935818;29;20090;-77
2022/01/24 13:12:10;;;;;;;21.73;19.45;;;;;;;;;;4942933;29;20055;-77
2022/01/24 13:14:47;;;;;;;22.35;19.95;;;;;;;;;;4946991;29;20063;-77
2022/01/24 13:23:09;;;;;;;23.38;20.90;;;;;;;;;;4945734;28;20051;-77
2022/01/24 13:25:39;;;;;;;23.73;20.27;;;;;;;;;;4950690;29;20047;-78
2022/01/24 13:28:07;;;;;;;22.73;20.20;;;;;;;;;;4935891;29;20578;-78
2022/01/24 13:30:36;;;;;;;22.25;19.60;;;;;;;;;;4935164;29;20126;-78
2022/01/24 13:33:06;;;;;;;20.67;18.48;;;;;;;;;;4936101;28;20058;-78
2022/01/24 13:35:43;;;;;;;21.63;19.08;;;;;;;;;;4952700;29;20062;-78
2022/01/24 13:38:11;;;;;;;24.02;21.52;;;;;;;;;;4934827;29;20055;-77
2022/01/24 13:40:57;;;;;;;20.55;18.35;;;;;;;;;;4935714;29;20486;-77
2022/01/24 13:43:30;;;;;;;21.83;18.80;;;;;;;;;;4948752;28;20491;-78
2022/01/24 13:45:56;;;;;;;21.17;18.98;;;;;;;;;;4949484;29;20051;-77
2022/01/24 13:48:24;;;;;;;21.85;19.38;;;;;;;;;;4950830;29;20055;-76
2022/01/24 13:51:09;;;;;;;20.30;18.15;;;;;;;;;;4951921;29;20509;-76
2022/01/24 13:53:36;;;;;;;21.50;19.10;;;;;;;;;;4933758;29;20502;-77
2022/01/24 13:56:18;;;;;;;21.00;18.90;;;;;;;;;;4936141;28;20047;-77
2022/01/24 13:58:57;;;;;;;21.45;19.02;;;;;;;;;;4932468;29;20065;-77
2022/01/24 14:01:22;;;;;;;20.13;17.50;;;;;;;;;;4952070;28;20356;-77
2022/01/24 14:03:56;;;;;;;18.40;16.52;;;;;;;;;;4952942;29;20622;-77
2022/01/24 14:06:26;;;;;;;21.45;19.25;;;;;;;;;;4928855;29;20062;-77
2022/01/24 14:09:02;;;;;;;22.23;19.92;;;;;;;;;;4935457;29;20053;-77
2022/01/24 14:11:29;;;;;;;22.08;19.77;;;;;;;;;;4948437;29;20434;-77
2022/01/24 14:14:04;;;;;;;23.67;21.27;;;;;;;;;;4951481;29;20051;-77
2022/01/24 14:19:16;;;;;;;24.27;21.23;;;;;;;;;;4952669;29;20044;-78
2022/01/24 14:22:00;;;;;;;22.90;20.60;;;;;;;;;;4950450;28;20099;-78
2022/01/24 14:24:26;;;;;;;;;;;;;;;;;;4952728;29;20047;-78
2022/01/24 14:26:53;;;;;;;21.38;19.17;;;;;;;;;;4933799;29;20548;-77
2022/01/24 14:29:19;;;;;;;23.77;21.27;;;;;;;;;;4954079;28;20063;-78
2022/01/24 14:31:47;;;;;;;24.65;21.48;;;;;;;;;;4936206;29;20057;-78
2022/01/24 14:34:18;;;;;;;26.52;23.73;;;;;;;;;;4954009;29;20054;-78
2022/01/24 14:36:54;;;;;;;21.85;19.60;;;;;;;;;;4954465;29;20408;-78
2022/01/24 14:39:21;;;;;;;21.38;19.20;;;;;;;;;;4954591;29;20043;-78
2022/01/24 14:41:49;;;;;;;23.13;20.63;;;;;;;;;;4952401;29;20067;-78
2022/01/24 14:47:01;;;;;;;23.77;21.23;;;;;;;;;;4955384;29;20488;-77
2022/01/24 14:49:29;;;;;;;24.27;20.85;;;;;;;;;;4950499;29;20499;-78
2022/01/24 14:51:58;;;;;;;25.30;21.77;;;;;;;;;;4955870;29;20082;-77
2022/01/24 14:54:25;;;;;;;25.38;22.67;;;;;;;;;;4955292;29;20102;-77
2022/01/24 14:56:52;;;;;;;25.45;22.25;;;;;;;;;;4954092;29;20130;-77
2022/01/24 14:59:19;;;;;;;23.65;21.02;;;;;;;;;;4955375;29;20119;-78
2022/01/24 15:01:45;;;;;;;26.67;23.00;;;;;;;;;;4938026;29;20055;-77
2022/01/24 15:04:11;;;;;;;23.98;21.38;;;;;;;;;;4937366;29;20043;-78
2022/01/24 15:06:37;;;;;;;23.80;21.30;;;;;;;;;;4953798;29;20094;-77
2022/01/24 15:09:08;;;;;;;24.85;22.17;;;;;;;;;;4954011;29;20035;-78
2022/01/24 15:11:36;;;;;;;25.50;22.88;;;;;;;;;;4934018;29;20415;-78
2022/01/24 15:14:08;;;;;;;24.00;21.25;;;;;;;;;;4955001;28;20126;-77
2022/01/24 15:16:49;;;;;;;26.92;24.00;;;;;;;;;;4944377;29;20114;-78
2022/01/24 15:27:46;;;;;;;29.08;25.80;;;5.90;99.90;;;;;;4934589;29;20397;-78
2022/01/24 15:30:14;;;;;;;28.48;23.85;;;5.90;99.90;;;;;;4934687;29;20044;-77
2022/01/24 15:32:41;;;;;;;27.15;24.20;;;5.90;99.90;;;;;;4930576;29;20044;-79
2022/01/24 15:35:08;;;;;;;27.88;24.98;;;5.90;99.90;;;;;;4924231;29;20048;-77
2022/01/24 15:37:33;;;;;;;27.40;24.50;;;5.90;99.90;;;;;;4963146;28;20495;-77
2022/01/24 15:39:59;;;;;;;27.50;24.50;;;5.90;99.90;;;;;;4937997;28;20047;-77
2022/01/24 15:43:04;;;;;;;29.60;25.48;;;5.80;99.90;;;;;;4935489;29;20115;-77
2022/01/24 15:45:29;;;;;;;28.20;24.58;;;5.80;99.90;;;;;;4932574;29;20396;-78
2022/01/24 15:47:55;;;;;;;30.80;26.05;;;5.80;99.90;;;;;;4936252;29;20432;-77
2022/01/24 15:50:23;;;;;;;30.65;26.08;;;5.80;99.90;;;;;;4933240;29;20039;-77
2022/01/24 15:52:51;;;;;;;28.88;25.90;;;5.80;99.90;;;;;;4931989;29;20051;-77
2022/01/24 15:55:30;;;;;;;29.70;25.75;;;5.80;99.90;;;;;;4917162;29;20056;-77
2022/01/24 15:57:58;;;;;;;30.60;26.40;;;5.80;99.90;;;;;;4932920;29;20042;-74
2022/01/24 16:00:34;;;;;;;28.55;25.50;;;5.80;99.90;;;;;;4932458;29;20380;-77
2022/01/24 16:03:03;;;;;;;31.45;25.67;;;5.80;99.90;;;;;;4934688;29;20043;-77
2022/01/24 16:05:29;;;;;;;30.02;26.83;;;;;;;;;;4933040;29;20463;-77
2022/01/24 16:07:56;;;;;;;29.95;26.23;;;;;;;;;;4934588;29;20405;-77
2022/01/24 16:10:24;;;;;;;31.88;26.85;;;;;;;;;;4934113;29;20051;-77
2022/01/24 16:12:50;;;;;;;30.48;26.65;;;;;;;;;;4930069;29;20043;-77
2022/01/24 16:15:18;;;;;;;30.38;27.17;;;;;;;;;;4933319;29;20050;-79
2022/01/24 16:17:44;;;;;;;29.60;26.15;;;;;;;;;;4933403;29;20381;-77
2022/01/24 16:25:42;;;;;;;28.92;25.25;;;;;;;;;;4931381;29;20039;-77
2022/01/24 16:28:11;;;;;;;31.02;27.58;;;;;;;;;;4929030;29;20066;-76
2022/01/24 16:30:38;;;;;;;28.92;25.33;;;;;;;;;;4953219;29;20055;-78
2022/01/24 16:33:05;;;;;;;30.33;26.83;;;;;;;;;;4937260;29;20050;-78